sensor_id;sensor_type;location;lat;lon;timestamp;P1;durP1;ratioP1;P2;durP2;ratioP2
12852;SDS011;6495;51.808;7.478;2022-09-09T00:02:19;0.65;;;0.40;;
12852;SDS011;6495;51.808;7.478;2022-09-09T00:04:53;1.95;;;0.68;;
12852;SDS011;6495;51.808;7.478;2022-09-09T00:07:33;2.25;;;0.68;;
12852;SDS011;6495;51.808;7.478;2022-09-09T00:10:14;0.70;;;0.50;;
12852;SDS011;6495;51.808;7.478;2022-09-09T00:12:55;0.85;;;0.30;;
12852;SDS011;6495;51.808;7.478;2022-09-09T00:15:34;0.80;;;0.43;;
12852;SDS011;6495;51.808;7.478;2022-09-09T00:18:11;1.10;;;0.70;;
12852;SDS011;6495;51.808;7.478;2022-09-09T00:20:52;0.68;;;0.68;;
12852;SDS011;6495;51.808;7.478;2022-09-09T00:23:30;0.57;;;0.57;;
12852;SDS011;6495;51.808;7.478;2022-09-09T00:26:08;0.80;;;0.80;;
12852;SDS011;6495;51.808;7.478;2022-09-09T00:28:50;2.05;;;0.65;;
12852;SDS011;6495;51.808;7.478;2022-09-09T00:31:29;0.60;;;0.60;;
12852;SDS011;6495;51.808;7.478;2022-09-09T00:34:00;0.52;;;0.50;;
12852;SDS011;6495;51.808;7.478;2022-09-09T00:36:40;1.70;;;0.52;;
12852;SDS011;6495;51.808;7.478;2022-09-09T00:39:12;2.38;;;0.90;;
12852;SDS011;6495;51.808;7.478;2022-09-09T00:41:51;0.50;;;0.50;;
12852;SDS011;6495;51.808;7.478;2022-09-09T00:44:43;2.45;;;0.75;;
12852;SDS011;6495;51.808;7.478;2022-09-09T00:47:25;2.40;;;0.70;;
12852;SDS011;6495;51.808;7.478;2022-09-09T00:50:19;1.35;;;1.00;;
12852;SDS011;6495;51.808;7.478;2022-09-09T00:53:05;1.08;;;0.65;;
12852;SDS011;6495;51.808;7.478;2022-09-09T00:55:47;3.10;;;0.80;;
12852;SDS011;6495;51.808;7.478;2022-09-09T00:58:21;1.88;;;0.88;;
12852;SDS011;6495;51.808;7.478;2022-09-09T01:00:51;0.82;;;0.80;;
12852;SDS011;6495;51.808;7.478;2022-09-09T01:03:32;0.82;;;0.82;;
12852;SDS011;6495;51.808;7.478;2022-09-09T01:06:13;2.30;;;0.95;;
12852;SDS011;6495;51.808;7.478;2022-09-09T01:11:50;1.95;;;0.50;;
12852;SDS011;6495;51.808;7.478;2022-09-09T01:14:43;1.55;;;0.60;;
12852;SDS011;6495;51.808;7.478;2022-09-09T01:17:20;1.90;;;0.88;;
12852;SDS011;6495;51.808;7.478;2022-09-09T01:19:59;0.85;;;0.52;;
12852;SDS011;6495;51.808;7.478;2022-09-09T01:22:39;0.52;;;0.52;;
12852;SDS011;6495;51.808;7.478;2022-09-09T01:25:22;0.75;;;0.70;;
12852;SDS011;6495;51.808;7.478;2022-09-09T01:28:00;1.15;;;0.60;;
12852;SDS011;6495;51.808;7.478;2022-09-09T01:30:37;1.35;;;0.50;;
12852;SDS011;6495;51.808;7.478;2022-09-09T01:33:09;0.60;;;0.60;;
12852;SDS011;6495;51.808;7.478;2022-09-09T01:35:43;0.50;;;0.50;;
12852;SDS011;6495;51.808;7.478;2022-09-09T01:38:20;0.85;;;0.55;;
12852;SDS011;6495;51.808;7.478;2022-09-09T01:40:51;0.85;;;0.70;;
12852;SDS011;6495;51.808;7.478;2022-09-09T01:43:21;3.33;;;0.70;;
12852;SDS011;6495;51.808;7.478;2022-09-09T01:45:52;1.48;;;0.70;;
12852;SDS011;6495;51.808;7.478;2022-09-09T01:48:23;0.77;;;0.77;;
12852;SDS011;6495;51.808;7.478;2022-09-09T01:50:52;0.82;;;0.80;;
12852;SDS011;6495;51.808;7.478;2022-09-09T01:53:20;0.50;;;0.50;;
12852;SDS011;6495;51.808;7.478;2022-09-09T01:55:52;0.50;;;0.50;;
12852;SDS011;6495;51.808;7.478;2022-09-09T01:58:40;2.45;;;0.90;;
12852;SDS011;6495;51.808;7.478;2022-09-09T02:01:24;1.48;;;0.65;;
12852;SDS011;6495;51.808;7.478;2022-09-09T02:04:11;1.63;;;0.70;;
12852;SDS011;6495;51.808;7.478;2022-09-09T02:06:56;1.08;;;0.68;;
12852;SDS011;6495;51.808;7.478;2022-09-09T02:09:24;1.70;;;0.70;;
12852;SDS011;6495;51.808;7.478;2022-09-09T02:11:57;2.08;;;0.80;;
12852;SDS011;6495;51.808;7.478;2022-09-09T02:14:38;0.85;;;0.85;;
12852;SDS011;6495;51.808;7.478;2022-09-09T02:17:11;2.47;;;0.90;;
12852;SDS011;6495;51.808;7.478;2022-09-09T02:19:46;0.60;;;0.60;;
12852;SDS011;6495;51.808;7.478;2022-09-09T02:22:22;2.15;;;0.68;;
12852;SDS011;6495;51.808;7.478;2022-09-09T02:24:54;0.82;;;0.80;;
12852;SDS011;6495;51.808;7.478;2022-09-09T02:27:27;1.48;;;0.70;;
12852;SDS011;6495;51.808;7.478;2022-09-09T02:29:57;0.90;;;0.70;;
12852;SDS011;6495;51.808;7.478;2022-09-09T02:32:30;5.53;;;0.77;;
12852;SDS011;6495;51.808;7.478;2022-09-09T02:35:03;1.00;;;0.60;;
12852;SDS011;6495;51.808;7.478;2022-09-09T02:37:38;1.63;;;0.90;;
12852;SDS011;6495;51.808;7.478;2022-09-09T02:40:10;1.30;;;0.90;;
12852;SDS011;6495;51.808;7.478;2022-09-09T02:42:41;1.00;;;0.85;;
12852;SDS011;6495;51.808;7.478;2022-09-09T02:45:14;1.08;;;0.80;;
12852;SDS011;6495;51.808;7.478;2022-09-09T02:47:47;2.10;;;1.10;;
12852;SDS011;6495;51.808;7.478;2022-09-09T02:50:25;1.65;;;1.00;;
12852;SDS011;6495;51.808;7.478;2022-09-09T02:53:02;1.92;;;0.70;;
12852;SDS011;6495;51.808;7.478;2022-09-09T02:55:38;0.98;;;0.85;;
12852;SDS011;6495;51.808;7.478;2022-09-09T02:58:12;1.75;;;0.98;;
12852;SDS011;6495;51.808;7.478;2022-09-09T03:00:47;2.83;;;1.02;;
12852;SDS011;6495;51.808;7.478;2022-09-09T03:03:17;1.70;;;1.02;;
12852;SDS011;6495;51.808;7.478;2022-09-09T03:05:48;1.10;;;1.00;;
12852;SDS011;6495;51.808;7.478;2022-09-09T03:08:16;1.15;;;1.05;;
12852;SDS011;6495;51.808;7.478;2022-09-09T03:10:44;2.05;;;1.13;;
12852;SDS011;6495;51.808;7.478;2022-09-09T03:13:12;1.77;;;1.27;;
12852;SDS011;6495;51.808;7.478;2022-09-09T03:15:41;1.33;;;1.08;;
12852;SDS011;6495;51.808;7.478;2022-09-09T03:18:10;1.48;;;1.25;;
12852;SDS011;6495;51.808;7.478;2022-09-09T03:20:38;1.30;;;1.15;;
12852;SDS011;6495;51.808;7.478;2022-09-09T03:23:08;1.83;;;1.20;;
12852;SDS011;6495;51.808;7.478;2022-09-09T03:25:45;1.38;;;1.27;;
12852;SDS011;6495;51.808;7.478;2022-09-09T03:28:15;3.08;;;1.50;;
12852;SDS011;6495;51.808;7.478;2022-09-09T03:30:43;2.17;;;1.20;;
12852;SDS011;6495;51.808;7.478;2022-09-09T03:33:12;3.47;;;1.30;;
12852;SDS011;6495;51.808;7.478;2022-09-09T03:35:44;2.85;;;1.58;;
12852;SDS011;6495;51.808;7.478;2022-09-09T03:38:14;2.40;;;1.30;;
12852;SDS011;6495;51.808;7.478;2022-09-09T03:40:48;1.95;;;1.30;;
12852;SDS011;6495;51.808;7.478;2022-09-09T03:43:17;3.00;;;1.38;;
12852;SDS011;6495;51.808;7.478;2022-09-09T03:45:47;2.55;;;1.40;;
12852;SDS011;6495;51.808;7.478;2022-09-09T03:48:17;3.53;;;1.27;;
12852;SDS011;6495;51.808;7.478;2022-09-09T03:50:46;1.77;;;1.60;;
12852;SDS011;6495;51.808;7.478;2022-09-09T03:53:16;2.35;;;1.60;;
12852;SDS011;6495;51.808;7.478;2022-09-09T03:55:46;1.50;;;1.40;;
12852;SDS011;6495;51.808;7.478;2022-09-09T03:58:16;1.85;;;1.42;;
12852;SDS011;6495;51.808;7.478;2022-09-09T04:00:52;1.88;;;1.58;;
12852;SDS011;6495;51.808;7.478;2022-09-09T04:03:24;3.47;;;1.70;;
12852;SDS011;6495;51.808;7.478;2022-09-09T04:05:54;4.10;;;1.58;;
12852;SDS011;6495;51.808;7.478;2022-09-09T04:08:24;3.80;;;1.85;;
12852;SDS011;6495;51.808;7.478;2022-09-09T04:10:53;2.90;;;1.75;;
12852;SDS011;6495;51.808;7.478;2022-09-09T04:13:24;1.95;;;1.40;;
12852;SDS011;6495;51.808;7.478;2022-09-09T04:15:53;1.90;;;1.42;;
12852;SDS011;6495;51.808;7.478;2022-09-09T04:18:24;3.20;;;1.90;;
12852;SDS011;6495;51.808;7.478;2022-09-09T04:20:54;1.77;;;1.40;;
12852;SDS011;6495;51.808;7.478;2022-09-09T04:23:24;4.07;;;1.65;;
12852;SDS011;6495;51.808;7.478;2022-09-09T04:25:55;1.33;;;1.23;;
12852;SDS011;6495;51.808;7.478;2022-09-09T04:28:26;3.33;;;1.58;;
12852;SDS011;6495;51.808;7.478;2022-09-09T04:30:57;2.15;;;1.60;;
12852;SDS011;6495;51.808;7.478;2022-09-09T04:33:33;2.95;;;1.75;;
12852;SDS011;6495;51.808;7.478;2022-09-09T04:36:05;2.83;;;1.38;;
12852;SDS011;6495;51.808;7.478;2022-09-09T04:38:34;3.00;;;1.70;;
12852;SDS011;6495;51.808;7.478;2022-09-09T04:41:03;4.53;;;1.40;;
12852;SDS011;6495;51.808;7.478;2022-09-09T04:43:31;2.17;;;1.48;;
12852;SDS011;6495;51.808;7.478;2022-09-09T04:46:00;1.88;;;1.30;;
12852;SDS011;6495;51.808;7.478;2022-09-09T04:48:29;1.95;;;1.40;;
12852;SDS011;6495;51.808;7.478;2022-09-09T04:50:59;1.35;;;1.23;;
12852;SDS011;6495;51.808;7.478;2022-09-09T04:53:30;2.72;;;1.20;;
12852;SDS011;6495;51.808;7.478;2022-09-09T04:56:04;1.83;;;1.20;;
12852;SDS011;6495;51.808;7.478;2022-09-09T04:58:36;4.43;;;1.50;;
12852;SDS011;6495;51.808;7.478;2022-09-09T05:01:05;3.40;;;1.48;;
12852;SDS011;6495;51.808;7.478;2022-09-09T05:03:35;1.52;;;1.10;;
12852;SDS011;6495;51.808;7.478;2022-09-09T05:06:06;2.25;;;1.27;;
12852;SDS011;6495;51.808;7.478;2022-09-09T05:08:36;1.40;;;1.10;;
12852;SDS011;6495;51.808;7.478;2022-09-09T05:11:12;1.42;;;1.30;;
12852;SDS011;6495;51.808;7.478;2022-09-09T05:13:43;2.53;;;1.55;;
12852;SDS011;6495;51.808;7.478;2022-09-09T05:16:12;3.35;;;1.17;;
12852;SDS011;6495;51.808;7.478;2022-09-09T05:18:40;1.98;;;1.55;;
12852;SDS011;6495;51.808;7.478;2022-09-09T05:21:11;3.72;;;1.42;;
12852;SDS011;6495;51.808;7.478;2022-09-09T05:23:41;3.60;;;1.48;;
12852;SDS011;6495;51.808;7.478;2022-09-09T05:26:11;3.70;;;1.52;;
12852;SDS011;6495;51.808;7.478;2022-09-09T05:28:43;3.22;;;1.20;;
12852;SDS011;6495;51.808;7.478;2022-09-09T05:31:12;3.35;;;1.35;;
12852;SDS011;6495;51.808;7.478;2022-09-09T05:33:43;2.60;;;1.52;;
12852;SDS011;6495;51.808;7.478;2022-09-09T05:36:16;4.15;;;1.20;;
12852;SDS011;6495;51.808;7.478;2022-09-09T05:38:46;1.42;;;1.17;;
12852;SDS011;6495;51.808;7.478;2022-09-09T05:41:16;5.72;;;1.50;;
12852;SDS011;6495;51.808;7.478;2022-09-09T05:43:46;2.80;;;1.35;;
12852;SDS011;6495;51.808;7.478;2022-09-09T05:46:15;3.40;;;1.33;;
12852;SDS011;6495;51.808;7.478;2022-09-09T05:48:46;1.60;;;1.40;;
12852;SDS011;6495;51.808;7.478;2022-09-09T05:51:19;3.50;;;1.73;;
12852;SDS011;6495;51.808;7.478;2022-09-09T05:53:50;1.60;;;1.30;;
12852;SDS011;6495;51.808;7.478;2022-09-09T05:56:19;1.42;;;1.30;;
12852;SDS011;6495;51.808;7.478;2022-09-09T05:58:50;2.70;;;1.38;;
12852;SDS011;6495;51.808;7.478;2022-09-09T06:01:20;2.05;;;1.20;;
12852;SDS011;6495;51.808;7.478;2022-09-09T06:03:50;4.28;;;1.58;;
12852;SDS011;6495;51.808;7.478;2022-09-09T06:06:21;1.98;;;1.45;;
12852;SDS011;6495;51.808;7.478;2022-09-09T06:08:53;1.77;;;1.20;;
12852;SDS011;6495;51.808;7.478;2022-09-09T06:11:24;3.47;;;1.40;;
12852;SDS011;6495;51.808;7.478;2022-09-09T06:13:57;2.92;;;1.10;;
12852;SDS011;6495;51.808;7.478;2022-09-09T06:16:26;3.47;;;1.20;;
12852;SDS011;6495;51.808;7.478;2022-09-09T06:18:56;4.40;;;1.50;;
12852;SDS011;6495;51.808;7.478;2022-09-09T06:21:26;1.83;;;1.05;;
12852;SDS011;6495;51.808;7.478;2022-09-09T06:23:57;3.03;;;1.35;;
12852;SDS011;6495;51.808;7.478;2022-09-09T06:26:27;3.53;;;1.35;;
12852;SDS011;6495;51.808;7.478;2022-09-09T06:28:57;3.80;;;1.70;;
12852;SDS011;6495;51.808;7.478;2022-09-09T06:31:28;4.03;;;1.08;;
12852;SDS011;6495;51.808;7.478;2022-09-09T06:34:00;2.05;;;1.35;;
12852;SDS011;6495;51.808;7.478;2022-09-09T06:36:31;5.18;;;1.48;;
12852;SDS011;6495;51.808;7.478;2022-09-09T06:39:03;3.67;;;1.30;;
12852;SDS011;6495;51.808;7.478;2022-09-09T06:41:38;3.30;;;1.52;;
12852;SDS011;6495;51.808;7.478;2022-09-09T06:44:07;2.47;;;1.40;;
12852;SDS011;6495;51.808;7.478;2022-09-09T06:46:37;1.88;;;1.20;;
12852;SDS011;6495;51.808;7.478;2022-09-09T06:49:07;3.85;;;1.40;;
12852;SDS011;6495;51.808;7.478;2022-09-09T06:51:37;6.95;;;1.63;;
12852;SDS011;6495;51.808;7.478;2022-09-09T06:54:09;1.58;;;1.20;;
12852;SDS011;6495;51.808;7.478;2022-09-09T06:56:39;2.63;;;1.42;;
12852;SDS011;6495;51.808;7.478;2022-09-09T06:59:09;6.53;;;1.60;;
12852;SDS011;6495;51.808;7.478;2022-09-09T07:01:39;2.10;;;1.30;;
12852;SDS011;6495;51.808;7.478;2022-09-09T07:04:09;1.45;;;1.33;;
12852;SDS011;6495;51.808;7.478;2022-09-09T07:06:41;3.75;;;1.50;;
12852;SDS011;6495;51.808;7.478;2022-09-09T07:09:12;2.05;;;1.35;;
12852;SDS011;6495;51.808;7.478;2022-09-09T07:11:43;3.17;;;1.70;;
12852;SDS011;6495;51.808;7.478;2022-09-09T07:14:13;5.10;;;1.55;;
12852;SDS011;6495;51.808;7.478;2022-09-09T07:16:43;6.68;;;1.42;;
12852;SDS011;6495;51.808;7.478;2022-09-09T07:19:13;1.25;;;1.13;;
12852;SDS011;6495;51.808;7.478;2022-09-09T07:21:43;2.67;;;1.45;;
12852;SDS011;6495;51.808;7.478;2022-09-09T07:24:11;5.00;;;1.80;;
12852;SDS011;6495;51.808;7.478;2022-09-09T07:26:39;2.85;;;1.55;;
12852;SDS011;6495;51.808;7.478;2022-09-09T07:29:07;3.97;;;1.50;;
12852;SDS011;6495;51.808;7.478;2022-09-09T07:31:36;3.40;;;1.40;;
12852;SDS011;6495;51.808;7.478;2022-09-09T07:34:06;6.45;;;1.70;;
12852;SDS011;6495;51.808;7.478;2022-09-09T07:36:35;2.53;;;1.50;;
12852;SDS011;6495;51.808;7.478;2022-09-09T07:39:10;2.47;;;1.50;;
12852;SDS011;6495;51.808;7.478;2022-09-09T07:41:41;3.33;;;1.60;;
12852;SDS011;6495;51.808;7.478;2022-09-09T07:44:11;5.15;;;1.52;;
12852;SDS011;6495;51.808;7.478;2022-09-09T07:46:43;4.22;;;1.70;;
12852;SDS011;6495;51.808;7.478;2022-09-09T07:49:12;4.00;;;1.55;;
12852;SDS011;6495;51.808;7.478;2022-09-09T07:51:42;9.70;;;2.03;;
12852;SDS011;6495;51.808;7.478;2022-09-09T07:54:14;5.15;;;1.75;;
12852;SDS011;6495;51.808;7.478;2022-09-09T07:56:46;2.53;;;1.33;;
12852;SDS011;6495;51.808;7.478;2022-09-09T07:59:15;4.88;;;1.42;;
12852;SDS011;6495;51.808;7.478;2022-09-09T08:01:45;5.65;;;1.30;;
12852;SDS011;6495;51.808;7.478;2022-09-09T08:04:20;4.85;;;1.50;;
12852;SDS011;6495;51.808;7.478;2022-09-09T08:06:51;2.17;;;1.15;;
12852;SDS011;6495;51.808;7.478;2022-09-09T08:09:23;4.68;;;1.40;;
12852;SDS011;6495;51.808;7.478;2022-09-09T08:11:53;5.32;;;1.20;;
12852;SDS011;6495;51.808;7.478;2022-09-09T08:14:22;1.60;;;1.08;;
12852;SDS011;6495;51.808;7.478;2022-09-09T08:16:50;7.85;;;1.40;;
12852;SDS011;6495;51.808;7.478;2022-09-09T08:19:20;4.35;;;1.25;;
12852;SDS011;6495;51.808;7.478;2022-09-09T08:21:48;2.03;;;1.10;;
12852;SDS011;6495;51.808;7.478;2022-09-09T08:24:16;1.10;;;1.00;;
12852;SDS011;6495;51.808;7.478;2022-09-09T08:26:47;7.13;;;1.70;;
12852;SDS011;6495;51.808;7.478;2022-09-09T08:29:16;2.65;;;1.58;;
12852;SDS011;6495;51.808;7.478;2022-09-09T08:31:46;3.78;;;1.38;;
12852;SDS011;6495;51.808;7.478;2022-09-09T08:34:16;3.17;;;1.40;;
12852;SDS011;6495;51.808;7.478;2022-09-09T08:36:47;5.20;;;1.67;;
12852;SDS011;6495;51.808;7.478;2022-09-09T08:39:17;3.22;;;1.15;;
12852;SDS011;6495;51.808;7.478;2022-09-09T08:41:58;2.72;;;1.40;;
12852;SDS011;6495;51.808;7.478;2022-09-09T08:45:03;4.70;;;1.35;;
12852;SDS011;6495;51.808;7.478;2022-09-09T08:48:03;6.10;;;1.30;;
12852;SDS011;6495;51.808;7.478;2022-09-09T08:50:47;3.05;;;1.30;;
12852;SDS011;6495;51.808;7.478;2022-09-09T08:53:19;5.75;;;1.33;;
12852;SDS011;6495;51.808;7.478;2022-09-09T08:55:52;2.50;;;1.20;;
12852;SDS011;6495;51.808;7.478;2022-09-09T08:58:27;4.10;;;1.20;;
12852;SDS011;6495;51.808;7.478;2022-09-09T09:01:01;4.13;;;1.20;;
12852;SDS011;6495;51.808;7.478;2022-09-09T09:03:52;1.83;;;1.17;;
12852;SDS011;6495;51.808;7.478;2022-09-09T09:06:31;3.40;;;1.10;;
12852;SDS011;6495;51.808;7.478;2022-09-09T09:09:16;3.40;;;1.35;;
12852;SDS011;6495;51.808;7.478;2022-09-09T09:11:59;3.25;;;1.50;;
12852;SDS011;6495;51.808;7.478;2022-09-09T09:14:33;3.28;;;1.42;;
12852;SDS011;6495;51.808;7.478;2022-09-09T09:17:05;3.70;;;1.80;;
12852;SDS011;6495;51.808;7.478;2022-09-09T09:19:41;4.50;;;1.83;;
12852;SDS011;6495;51.808;7.478;2022-09-09T09:22:14;2.70;;;1.42;;
12852;SDS011;6495;51.808;7.478;2022-09-09T09:24:50;2.15;;;1.48;;
12852;SDS011;6495;51.808;7.478;2022-09-09T09:27:30;4.10;;;1.65;;
12852;SDS011;6495;51.808;7.478;2022-09-09T09:30:05;3.08;;;1.70;;
12852;SDS011;6495;51.808;7.478;2022-09-09T09:32:54;3.83;;;1.88;;
12852;SDS011;6495;51.808;7.478;2022-09-09T09:35:30;3.83;;;1.77;;
12852;SDS011;6495;51.808;7.478;2022-09-09T09:38:05;4.68;;;1.60;;
12852;SDS011;6495;51.808;7.478;2022-09-09T09:41:04;6.00;;;1.50;;
12852;SDS011;6495;51.808;7.478;2022-09-09T09:43:33;3.22;;;1.35;;
12852;SDS011;6495;51.808;7.478;2022-09-09T09:46:05;3.72;;;1.80;;
12852;SDS011;6495;51.808;7.478;2022-09-09T09:48:56;3.50;;;1.60;;
12852;SDS011;6495;51.808;7.478;2022-09-09T09:51:25;3.15;;;1.63;;
12852;SDS011;6495;51.808;7.478;2022-09-09T09:54:02;5.63;;;1.88;;
12852;SDS011;6495;51.808;7.478;2022-09-09T09:56:42;3.95;;;1.83;;
12852;SDS011;6495;51.808;7.478;2022-09-09T09:59:22;3.20;;;2.15;;
12852;SDS011;6495;51.808;7.478;2022-09-09T10:02:12;5.95;;;1.80;;
12852;SDS011;6495;51.808;7.478;2022-09-09T10:04:44;3.25;;;1.90;;
12852;SDS011;6495;51.808;7.478;2022-09-09T10:07:19;3.28;;;1.45;;
12852;SDS011;6495;51.808;7.478;2022-09-09T10:09:51;3.78;;;1.95;;
12852;SDS011;6495;51.808;7.478;2022-09-09T10:12:25;3.95;;;2.08;;
12852;SDS011;6495;51.808;7.478;2022-09-09T10:15:15;5.32;;;1.77;;
12852;SDS011;6495;51.808;7.478;2022-09-09T10:18:02;8.40;;;2.22;;
12852;SDS011;6495;51.808;7.478;2022-09-09T10:20:50;3.33;;;1.58;;
12852;SDS011;6495;51.808;7.478;2022-09-09T10:23:33;3.45;;;1.98;;
12852;SDS011;6495;51.808;7.478;2022-09-09T10:26:41;3.92;;;1.60;;
12852;SDS011;6495;51.808;7.478;2022-09-09T10:29:23;3.78;;;1.73;;
12852;SDS011;6495;51.808;7.478;2022-09-09T10:32:24;2.85;;;1.70;;
12852;SDS011;6495;51.808;7.478;2022-09-09T10:35:10;4.32;;;1.73;;
12852;SDS011;6495;51.808;7.478;2022-09-09T10:38:10;2.05;;;1.63;;
12852;SDS011;6495;51.808;7.478;2022-09-09T10:40:47;2.13;;;1.65;;
12852;SDS011;6495;51.808;7.478;2022-09-09T10:43:56;3.30;;;1.92;;
12852;SDS011;6495;51.808;7.478;2022-09-09T10:46:48;2.40;;;1.60;;
12852;SDS011;6495;51.808;7.478;2022-09-09T10:49:39;3.63;;;2.00;;
12852;SDS011;6495;51.808;7.478;2022-09-09T10:52:43;3.15;;;2.20;;
12852;SDS011;6495;51.808;7.478;2022-09-09T10:55:23;3.88;;;1.90;;
12852;SDS011;6495;51.808;7.478;2022-09-09T10:57:57;2.92;;;2.13;;
12852;SDS011;6495;51.808;7.478;2022-09-09T11:00:31;5.40;;;1.35;;
12852;SDS011;6495;51.808;7.478;2022-09-09T11:03:09;3.28;;;1.20;;
12852;SDS011;6495;51.808;7.478;2022-09-09T11:05:47;1.55;;;1.00;;
12852;SDS011;6495;51.808;7.478;2022-09-09T11:08:23;2.55;;;1.17;;
12852;SDS011;6495;51.808;7.478;2022-09-09T11:10:58;2.13;;;1.27;;
12852;SDS011;6495;51.808;7.478;2022-09-09T11:13:35;2.17;;;1.65;;
12852;SDS011;6495;51.808;7.478;2022-09-09T11:16:15;4.38;;;1.42;;
12852;SDS011;6495;51.808;7.478;2022-09-09T11:18:53;2.78;;;1.50;;
12852;SDS011;6495;51.808;7.478;2022-09-09T11:21:30;4.25;;;1.70;;
12852;SDS011;6495;51.808;7.478;2022-09-09T11:24:06;2.33;;;1.15;;
12852;SDS011;6495;51.808;7.478;2022-09-09T11:26:44;2.67;;;1.23;;
12852;SDS011;6495;51.808;7.478;2022-09-09T11:29:28;2.17;;;1.35;;
12852;SDS011;6495;51.808;7.478;2022-09-09T11:32:37;3.00;;;1.40;;
12852;SDS011;6495;51.808;7.478;2022-09-09T11:35:38;2.15;;;1.10;;
12852;SDS011;6495;51.808;7.478;2022-09-09T11:38:21;1.67;;;1.00;;
12852;SDS011;6495;51.808;7.478;2022-09-09T11:40:56;2.88;;;1.17;;
12852;SDS011;6495;51.808;7.478;2022-09-09T11:43:29;1.52;;;1.00;;
12852;SDS011;6495;51.808;7.478;2022-09-09T11:46:01;1.38;;;0.90;;
12852;SDS011;6495;51.808;7.478;2022-09-09T11:48:34;6.53;;;1.08;;
12852;SDS011;6495;51.808;7.478;2022-09-09T11:51:05;4.55;;;1.10;;
12852;SDS011;6495;51.808;7.478;2022-09-09T11:53:57;1.13;;;1.00;;
12852;SDS011;6495;51.808;7.478;2022-09-09T11:56:30;1.80;;;0.90;;
12852;SDS011;6495;51.808;7.478;2022-09-09T11:59:02;2.60;;;1.00;;
12852;SDS011;6495;51.808;7.478;2022-09-09T12:01:36;2.28;;;0.90;;
12852;SDS011;6495;51.808;7.478;2022-09-09T12:04:13;2.65;;;0.88;;
12852;SDS011;6495;51.808;7.478;2022-09-09T12:07:03;1.00;;;0.85;;
12852;SDS011;6495;51.808;7.478;2022-09-09T12:09:52;1.02;;;1.00;;
12852;SDS011;6495;51.808;7.478;2022-09-09T12:12:32;1.35;;;1.10;;
12852;SDS011;6495;51.808;7.478;2022-09-09T12:15:24;5.30;;;1.25;;
12852;SDS011;6495;51.808;7.478;2022-09-09T12:17:56;2.42;;;1.13;;
12852;SDS011;6495;51.808;7.478;2022-09-09T12:20:33;2.72;;;1.10;;
12852;SDS011;6495;51.808;7.478;2022-09-09T12:26:04;1.17;;;1.10;;
12852;SDS011;6495;51.808;7.478;2022-09-09T12:29:01;2.72;;;1.20;;
12852;SDS011;6495;51.808;7.478;2022-09-09T12:31:46;2.67;;;1.08;;
12852;SDS011;6495;51.808;7.478;2022-09-09T12:34:28;1.60;;;1.20;;
12852;SDS011;6495;51.808;7.478;2022-09-09T12:37:13;2.25;;;1.17;;
12852;SDS011;6495;51.808;7.478;2022-09-09T12:39:49;1.38;;;0.95;;
12852;SDS011;6495;51.808;7.478;2022-09-09T12:42:22;2.28;;;1.00;;
12852;SDS011;6495;51.808;7.478;2022-09-09T12:44:53;2.55;;;0.88;;
12852;SDS011;6495;51.808;7.478;2022-09-09T12:47:30;1.48;;;1.10;;
12852;SDS011;6495;51.808;7.478;2022-09-09T12:50:14;2.40;;;1.10;;
12852;SDS011;6495;51.808;7.478;2022-09-09T12:52:46;2.28;;;1.20;;
12852;SDS011;6495;51.808;7.478;2022-09-09T12:55:18;8.57;;;1.70;;
12852;SDS011;6495;51.808;7.478;2022-09-09T12:57:51;3.05;;;1.50;;
12852;SDS011;6495;51.808;7.478;2022-09-09T13:00:22;1.85;;;1.10;;
12852;SDS011;6495;51.808;7.478;2022-09-09T13:02:53;2.58;;;1.23;;
12852;SDS011;6495;51.808;7.478;2022-09-09T13:05:24;1.15;;;0.80;;
12852;SDS011;6495;51.808;7.478;2022-09-09T13:08:00;1.83;;;0.93;;
12852;SDS011;6495;51.808;7.478;2022-09-09T13:10:30;1.88;;;0.93;;
12852;SDS011;6495;51.808;7.478;2022-09-09T13:13:21;1.90;;;1.00;;
12852;SDS011;6495;51.808;7.478;2022-09-09T13:15:55;2.45;;;1.35;;
12852;SDS011;6495;51.808;7.478;2022-09-09T13:18:27;1.20;;;1.10;;
12852;SDS011;6495;51.808;7.478;2022-09-09T13:20:59;1.20;;;0.88;;
12852;SDS011;6495;51.808;7.478;2022-09-09T13:23:29;1.60;;;0.90;;
12852;SDS011;6495;51.808;7.478;2022-09-09T13:26:02;1.38;;;0.80;;
12852;SDS011;6495;51.808;7.478;2022-09-09T13:28:33;2.50;;;0.98;;
12852;SDS011;6495;51.808;7.478;2022-09-09T13:31:04;1.35;;;0.95;;
12852;SDS011;6495;51.808;7.478;2022-09-09T13:33:46;1.33;;;0.95;;
12852;SDS011;6495;51.808;7.478;2022-09-09T13:36:14;2.15;;;1.20;;
12852;SDS011;6495;51.808;7.478;2022-09-09T13:38:52;1.13;;;0.77;;
12852;SDS011;6495;51.808;7.478;2022-09-09T13:41:23;2.00;;;0.80;;
12852;SDS011;6495;51.808;7.478;2022-09-09T13:43:56;1.00;;;0.65;;
12852;SDS011;6495;51.808;7.478;2022-09-09T13:46:28;0.63;;;0.63;;
12852;SDS011;6495;51.808;7.478;2022-09-09T13:49:18;2.25;;;0.98;;
12852;SDS011;6495;51.808;7.478;2022-09-09T13:52:42;0.70;;;0.70;;
12852;SDS011;6495;51.808;7.478;2022-09-09T13:55:10;0.82;;;0.80;;
12852;SDS011;6495;51.808;7.478;2022-09-09T13:57:38;1.77;;;0.98;;
12852;SDS011;6495;51.808;7.478;2022-09-09T14:00:17;1.42;;;1.05;;
12852;SDS011;6495;51.808;7.478;2022-09-09T14:02:48;2.05;;;0.80;;
12852;SDS011;6495;51.808;7.478;2022-09-09T14:05:16;0.82;;;0.70;;
12852;SDS011;6495;51.808;7.478;2022-09-09T14:07:46;1.63;;;0.50;;
12852;SDS011;6495;51.808;7.478;2022-09-09T14:10:18;0.65;;;0.45;;
12852;SDS011;6495;51.808;7.478;2022-09-09T14:12:48;1.08;;;0.68;;
12852;SDS011;6495;51.808;7.478;2022-09-09T14:15:16;1.70;;;0.60;;
12852;SDS011;6495;51.808;7.478;2022-09-09T14:17:45;0.57;;;0.57;;
12852;SDS011;6495;51.808;7.478;2022-09-09T14:20:16;3.50;;;0.60;;
12852;SDS011;6495;51.808;7.478;2022-09-09T14:22:45;0.70;;;0.60;;
12852;SDS011;6495;51.808;7.478;2022-09-09T14:34:51;2.53;;;1.00;;
12852;SDS011;6495;51.808;7.478;2022-09-09T14:37:20;3.33;;;1.05;;
12852;SDS011;6495;51.808;7.478;2022-09-09T14:39:48;4.40;;;1.17;;
12852;SDS011;6495;51.808;7.478;2022-09-09T14:42:17;2.60;;;1.17;;
12852;SDS011;6495;51.808;7.478;2022-09-09T14:44:45;4.72;;;1.38;;
12852;SDS011;6495;51.808;7.478;2022-09-09T14:47:14;2.25;;;1.20;;
12852;SDS011;6495;51.808;7.478;2022-09-09T14:49:42;1.65;;;1.15;;
12852;SDS011;6495;51.808;7.478;2022-09-09T14:52:12;2.08;;;1.20;;
12852;SDS011;6495;51.808;7.478;2022-09-09T14:54:41;3.33;;;1.17;;
12852;SDS011;6495;51.808;7.478;2022-09-09T14:57:10;7.22;;;1.20;;
12852;SDS011;6495;51.808;7.478;2022-09-09T14:59:38;3.47;;;1.00;;
12852;SDS011;6495;51.808;7.478;2022-09-09T15:02:08;2.83;;;1.08;;
12852;SDS011;6495;51.808;7.478;2022-09-09T15:04:36;3.40;;;1.10;;
12852;SDS011;6495;51.808;7.478;2022-09-09T15:07:04;1.33;;;0.80;;
12852;SDS011;6495;51.808;7.478;2022-09-09T15:09:32;0.95;;;0.82;;
12852;SDS011;6495;51.808;7.478;2022-09-09T15:12:02;2.85;;;0.80;;
12852;SDS011;6495;51.808;7.478;2022-09-09T15:14:31;3.38;;;1.00;;
12852;SDS011;6495;51.808;7.478;2022-09-09T15:16:59;0.75;;;0.70;;
12852;SDS011;6495;51.808;7.478;2022-09-09T15:19:27;2.05;;;0.90;;
12852;SDS011;6495;51.808;7.478;2022-09-09T15:21:55;2.40;;;0.90;;
12852;SDS011;6495;51.808;7.478;2022-09-09T15:24:23;1.25;;;0.95;;
12852;SDS011;6495;51.808;7.478;2022-09-09T15:26:52;1.65;;;0.82;;
12852;SDS011;6495;51.808;7.478;2022-09-09T15:29:21;1.13;;;1.02;;
12852;SDS011;6495;51.808;7.478;2022-09-09T15:31:49;0.80;;;0.80;;
12852;SDS011;6495;51.808;7.478;2022-09-09T15:34:17;0.95;;;0.77;;
12852;SDS011;6495;51.808;7.478;2022-09-09T15:36:45;1.90;;;0.93;;
12852;SDS011;6495;51.808;7.478;2022-09-09T15:39:17;0.95;;;0.90;;
12852;SDS011;6495;51.808;7.478;2022-09-09T15:41:46;5.95;;;1.20;;
12852;SDS011;6495;51.808;7.478;2022-09-09T15:44:15;1.25;;;0.90;;
12852;SDS011;6495;51.808;7.478;2022-09-09T15:46:48;2.10;;;1.00;;
12852;SDS011;6495;51.808;7.478;2022-09-09T15:49:20;1.92;;;1.00;;
12852;SDS011;6495;51.808;7.478;2022-09-09T15:51:52;3.70;;;1.20;;
12852;SDS011;6495;51.808;7.478;2022-09-09T15:54:24;1.27;;;0.93;;
12852;SDS011;6495;51.808;7.478;2022-09-09T15:56:54;2.05;;;1.05;;
12852;SDS011;6495;51.808;7.478;2022-09-09T15:59:25;2.42;;;1.00;;
12852;SDS011;6495;51.808;7.478;2022-09-09T16:01:56;1.20;;;1.00;;